X  Chiuso Dati meteorologici dell'aviazione (METAR)        LGTS Thessaloniki Macedonia International
Temperatura
14°C Temperatura
8°C Punto di rugiada
67% Umidità



Vento
4 KM/O
2 MPH
1 M/S
2 KTS



-1°
VRB
Condizioni attuali

Mostly Sunny Per lo piu' sereno
Pressione 1020 (hPa) - 30.12 (inHg)
Visibilità 6 (miglio) - 10 (km)
Aeroporto
Codice-Aeroporto LGTS

Posizione: Thessaloniki Macedonia International
Distanza: 85 (km)

Metar:
METAR LGTS 150450Z VRB02KT CAVOK 14/08 Q1020 NOSIG

Ore: 15-04-2024 07:50 EEST